RYR201 EFHK-EDDH
Flight info
| Callsign | RYR201 |
|---|---|
| Flight time | N/A |
| Altitude | 38000 |
| Route | NUNTO Y369 REKDO DCT KOSKA DCT GIMRU T503 MICOS N850 BOGMU BOGMU3P |
| Aircraft | B738/M-SDE2E3FGHIRWXY/LB1 |
Departure
| Time | N/A |
|---|---|
| Airport | Helsinki Vantaa Airport (EFHK) |
Arrival
| Time | 2026-04-23 20:00 |
|---|---|
| Airport | Hamburg Helmut Schmidt Airport (EDDH) |
| Time | Latitude | Longitude | Altitude | Speed | Heading |
|---|---|---|---|---|---|
| 2026-04-23 19:14 | 55.66201 | 13.31598 | 38126 ft | 460 kts | 231° |
| 2026-04-23 19:14 | 55.63944 | 13.27570 | 38110 ft | 461 kts | 231° |
| 2026-04-23 19:15 | 55.59436 | 13.19536 | 38115 ft | 461 kts | 230° |
| 2026-04-23 19:15 | 55.54919 | 13.11498 | 38108 ft | 460 kts | 230° |
| 2026-04-23 19:16 | 55.51169 | 13.04848 | 38128 ft | 460 kts | 230° |
| 2026-04-23 19:16 | 55.46650 | 12.96863 | 38125 ft | 460 kts | 230° |
| 2026-04-23 19:17 | 55.39863 | 12.84917 | 38117 ft | 460 kts | 230° |
| 2026-04-23 19:17 | 55.35337 | 12.76987 | 38116 ft | 459 kts | 230° |
| 2026-04-23 19:18 | 55.30817 | 12.69090 | 38125 ft | 458 kts | 230° |
| 2026-04-23 19:18 | 55.26299 | 12.61223 | 38121 ft | 457 kts | 229° |
| 2026-04-23 19:19 | 55.19526 | 12.49486 | 38119 ft | 456 kts | 229° |
| 2026-04-23 19:20 | 55.12760 | 12.37814 | 38113 ft | 455 kts | 229° |
| 2026-04-23 19:20 | 55.08239 | 12.30046 | 37974 ft | 458 kts | 229° |
| 2026-04-23 19:21 | 55.05968 | 12.26152 | 37684 ft | 458 kts | 229° |
| 2026-04-23 19:21 | 55.01442 | 12.18423 | 37144 ft | 453 kts | 229° |
| 2026-04-23 19:21 | 54.99190 | 12.14586 | 36885 ft | 454 kts | 229° |
| 2026-04-23 19:22 | 54.96931 | 12.10741 | 36630 ft | 455 kts | 229° |
| 2026-04-23 19:22 | 54.94666 | 12.06890 | 36378 ft | 455 kts | 229° |
| 2026-04-23 19:22 | 54.90125 | 11.99194 | 35853 ft | 456 kts | 228° |
| 2026-04-23 19:23 | 54.87848 | 11.95345 | 35605 ft | 456 kts | 228° |
| 2026-04-23 19:23 | 54.85576 | 11.91511 | 34973 ft | 457 kts | 228° |
| 2026-04-23 19:23 | 54.83295 | 11.87670 | 34396 ft | 456 kts | 228° |
| 2026-04-23 19:24 | 54.78725 | 11.79985 | 32949 ft | 459 kts | 228° |
| 2026-04-23 19:24 | 54.76430 | 11.76137 | 32259 ft | 460 kts | 228° |
| 2026-04-23 19:24 | 54.71817 | 11.68420 | 30775 ft | 462 kts | 228° |
| 2026-04-23 19:25 | 54.67171 | 11.60678 | 29052 ft | 465 kts | 227° |
| 2026-04-23 19:25 | 54.62566 | 11.53034 | 27881 ft | 455 kts | 227° |
| 2026-04-23 19:26 | 54.58038 | 11.45571 | 26700 ft | 447 kts | 225° |
| 2026-04-23 19:26 | 54.55464 | 11.42554 | 26109 ft | 450 kts | 210° |
| 2026-04-23 19:27 | 54.49755 | 11.38257 | 24990 ft | 445 kts | 205° |
| 2026-04-23 19:27 | 54.41247 | 11.32450 | 23396 ft | 434 kts | 205° |
| 2026-04-23 19:28 | 54.35690 | 11.28728 | 22283 ft | 426 kts | 204° |
| 2026-04-23 19:28 | 54.30178 | 11.25026 | 21258 ft | 412 kts | 204° |
| 2026-04-23 19:29 | 54.27567 | 11.23281 | 21121 ft | 393 kts | 204° |
| 2026-04-23 19:29 | 54.22692 | 11.20039 | 20866 ft | 361 kts | 204° |
| 2026-04-23 19:30 | 54.18082 | 11.16950 | 20041 ft | 356 kts | 204° |
| 2026-04-23 19:30 | 54.15788 | 11.15402 | 19651 ft | 352 kts | 204° |
| 2026-04-23 19:30 | 54.11270 | 11.12343 | 18637 ft | 348 kts | 204° |
| 2026-04-23 19:31 | 54.09033 | 11.10818 | 18092 ft | 346 kts | 204° |
| 2026-04-23 19:31 | 54.06810 | 11.09300 | 17549 ft | 343 kts | 204° |
| 2026-04-23 19:31 | 54.04600 | 11.07790 | 17011 ft | 341 kts | 204° |
| 2026-04-23 19:31 | 54.02406 | 11.06293 | 16493 ft | 339 kts | 204° |
| 2026-04-23 19:32 | 54.00225 | 11.04806 | 15981 ft | 337 kts | 204° |
| 2026-04-23 19:32 | 53.98058 | 11.03332 | 15471 ft | 335 kts | 204° |
| 2026-04-23 19:32 | 53.95906 | 11.01870 | 15003 ft | 332 kts | 204° |
| 2026-04-23 19:32 | 53.93764 | 11.00417 | 14518 ft | 330 kts | 204° |
| 2026-04-23 19:33 | 53.91635 | 10.98978 | 14031 ft | 329 kts | 204° |
| 2026-04-23 19:33 | 53.89516 | 10.97549 | 13495 ft | 328 kts | 204° |
| 2026-04-23 19:33 | 53.85281 | 10.94709 | 12862 ft | 323 kts | 204° |
| 2026-04-23 19:34 | 53.83193 | 10.93319 | 12543 ft | 322 kts | 204° |
| 2026-04-23 19:34 | 53.81117 | 10.91944 | 12231 ft | 320 kts | 204° |
| 2026-04-23 19:34 | 53.76978 | 10.89222 | 11596 ft | 318 kts | 204° |
| 2026-04-23 19:35 | 53.74919 | 10.87881 | 11311 ft | 316 kts | 204° |
| 2026-04-23 19:35 | 53.72868 | 10.86544 | 11244 ft | 318 kts | 204° |
| 2026-04-23 19:35 | 53.70798 | 10.85191 | 11215 ft | 319 kts | 204° |
| 2026-04-23 19:35 | 53.68770 | 10.83866 | 11206 ft | 315 kts | 204° |
| 2026-04-23 19:36 | 53.66729 | 10.82532 | 11204 ft | 315 kts | 204° |
| 2026-04-23 19:36 | 53.64683 | 10.81195 | 11210 ft | 316 kts | 204° |
| 2026-04-23 19:36 | 53.62632 | 10.79855 | 11215 ft | 316 kts | 204° |
| 2026-04-23 19:36 | 53.60580 | 10.78518 | 11213 ft | 317 kts | 204° |
| 2026-04-23 19:37 | 53.58499 | 10.77163 | 11215 ft | 317 kts | 204° |
| 2026-04-23 19:37 | 53.56470 | 10.75841 | 11220 ft | 317 kts | 204° |
| 2026-04-23 19:37 | 53.54414 | 10.74502 | 11216 ft | 317 kts | 204° |
| 2026-04-23 19:37 | 53.52357 | 10.73164 | 11214 ft | 317 kts | 204° |
| 2026-04-23 19:38 | 53.50268 | 10.71805 | 11211 ft | 317 kts | 204° |
| 2026-04-23 19:38 | 53.48239 | 10.70478 | 11212 ft | 317 kts | 204° |
| 2026-04-23 19:38 | 53.46217 | 10.69032 | 11216 ft | 314 kts | 214° |
| 2026-04-23 19:38 | 53.44472 | 10.66907 | 11230 ft | 309 kts | 223° |
| 2026-04-23 19:39 | 53.42810 | 10.64607 | 11219 ft | 309 kts | 224° |
| 2026-04-23 19:39 | 53.41162 | 10.62289 | 11215 ft | 309 kts | 224° |
| 2026-04-23 19:39 | 53.39519 | 10.59971 | 11218 ft | 309 kts | 224° |
| 2026-04-23 19:39 | 53.37879 | 10.57654 | 11220 ft | 308 kts | 224° |
| 2026-04-23 19:40 | 53.36240 | 10.55333 | 11221 ft | 308 kts | 224° |
| 2026-04-23 19:40 | 53.34603 | 10.53015 | 11243 ft | 308 kts | 224° |
| 2026-04-23 19:40 | 53.32963 | 10.50697 | 11237 ft | 309 kts | 224° |
| 2026-04-23 19:40 | 53.31321 | 10.48375 | 11236 ft | 309 kts | 224° |
| 2026-04-23 19:41 | 53.29678 | 10.46058 | 11236 ft | 309 kts | 224° |
| 2026-04-23 19:41 | 53.28041 | 10.43726 | 11225 ft | 308 kts | 227° |
| 2026-04-23 19:41 | 53.26819 | 10.40879 | 11227 ft | 298 kts | 252° |
| 2026-04-23 19:41 | 53.26416 | 10.37557 | 11240 ft | 290 kts | 272° |
| 2026-04-23 19:42 | 53.26379 | 10.34191 | 11224 ft | 289 kts | 274° |
| 2026-04-23 19:42 | 53.26388 | 10.30837 | 11227 ft | 289 kts | 275° |
| 2026-04-23 19:42 | 53.26405 | 10.27472 | 11238 ft | 290 kts | 275° |
| 2026-04-23 19:42 | 53.26427 | 10.24109 | 11237 ft | 290 kts | 275° |
| 2026-04-23 19:43 | 53.26452 | 10.20738 | 11243 ft | 290 kts | 275° |
| 2026-04-23 19:43 | 53.26485 | 10.17374 | 11245 ft | 289 kts | 278° |
| 2026-04-23 19:43 | 53.27074 | 10.14269 | 11241 ft | 278 kts | 309° |
| 2026-04-23 19:43 | 53.28536 | 10.12295 | 11256 ft | 272 kts | 338° |
| 2026-04-23 19:44 | 53.30351 | 10.11438 | 11254 ft | 272 kts | 352° |
| 2026-04-23 19:44 | 53.32245 | 10.11503 | 11249 ft | 275 kts | 7° |
| 2026-04-23 19:44 | 53.34126 | 10.12085 | 11249 ft | 275 kts | 8° |
| 2026-04-23 19:44 | 53.36009 | 10.12685 | 11239 ft | 275 kts | 8° |
| 2026-04-23 19:45 | 53.37894 | 10.13270 | 11240 ft | 276 kts | 8° |
| 2026-04-23 19:45 | 53.39777 | 10.13807 | 11233 ft | 274 kts | 4° |
| 2026-04-23 19:45 | 53.41676 | 10.13777 | 11244 ft | 272 kts | 355° |
| 2026-04-23 19:45 | 53.43567 | 10.13499 | 11247 ft | 274 kts | 354° |
| 2026-04-23 19:46 | 53.45439 | 10.13197 | 11245 ft | 267 kts | 354° |
| 2026-04-23 19:46 | 53.47276 | 10.12916 | 10778 ft | 267 kts | 354° |
| 2026-04-23 19:46 | 53.49139 | 10.12653 | 10474 ft | 266 kts | 354° |
| 2026-04-23 19:46 | 53.50951 | 10.12410 | 10244 ft | 256 kts | 354° |
| 2026-04-23 19:47 | 53.52135 | 10.12256 | 10137 ft | 248 kts | 354° |
| 2026-04-23 19:47 | 53.54349 | 10.11976 | 9919 ft | 234 kts | 354° |
| 2026-04-23 19:47 | 53.55946 | 10.11689 | 9668 ft | 231 kts | 353° |
| 2026-04-23 19:47 | 53.57537 | 10.11762 | 9459 ft | 231 kts | 13° |
| 2026-04-23 19:48 | 53.58978 | 10.12952 | 9245 ft | 234 kts | 31° |
| 2026-04-23 19:48 | 53.60145 | 10.14915 | 8943 ft | 241 kts | 44° |
| 2026-04-23 19:48 | 53.61210 | 10.17085 | 8698 ft | 240 kts | 44° |
| 2026-04-23 19:48 | 53.62266 | 10.19243 | 8459 ft | 238 kts | 44° |
| 2026-04-23 19:49 | 53.63320 | 10.21395 | 8212 ft | 237 kts | 44° |
| 2026-04-23 19:49 | 53.64371 | 10.23529 | 7918 ft | 235 kts | 44° |
| 2026-04-23 19:49 | 53.65418 | 10.25649 | 7473 ft | 236 kts | 44° |
| 2026-04-23 19:49 | 53.66478 | 10.27790 | 7022 ft | 238 kts | 44° |
| 2026-04-23 19:50 | 53.67525 | 10.29905 | 6642 ft | 237 kts | 43° |
| 2026-04-23 19:50 | 53.68592 | 10.32059 | 6212 ft | 236 kts | 43° |
| 2026-04-23 19:50 | 53.69638 | 10.34174 | 5773 ft | 234 kts | 44° |
| 2026-04-23 19:50 | 53.70673 | 10.36267 | 5316 ft | 237 kts | 44° |
| 2026-04-23 19:51 | 53.71738 | 10.38426 | 5052 ft | 234 kts | 44° |
| 2026-04-23 19:51 | 53.72747 | 10.40481 | 4998 ft | 228 kts | 43° |
| 2026-04-23 19:51 | 53.73749 | 10.42516 | 4978 ft | 224 kts | 43° |
| 2026-04-23 19:51 | 53.74741 | 10.44531 | 4969 ft | 220 kts | 43° |
| 2026-04-23 19:52 | 53.75388 | 10.45850 | 4958 ft | 212 kts | 43° |
| 2026-04-23 19:52 | 53.76821 | 10.47775 | 4993 ft | 192 kts | 9° |
| 2026-04-23 19:52 | 53.78100 | 10.47613 | 4973 ft | 187 kts | 334° |
| 2026-04-23 19:52 | 53.79020 | 10.46081 | 4987 ft | 193 kts | 299° |
| 2026-04-23 19:53 | 53.79192 | 10.43785 | 4981 ft | 206 kts | 268° |
| 2026-04-23 19:53 | 53.78891 | 10.41389 | 4974 ft | 209 kts | 265° |
| 2026-04-23 19:53 | 53.78558 | 10.38994 | 4977 ft | 209 kts | 264° |
| 2026-04-23 19:53 | 53.78220 | 10.36648 | 4967 ft | 200 kts | 264° |
| 2026-04-23 19:54 | 53.77891 | 10.34437 | 4973 ft | 190 kts | 264° |
| 2026-04-23 19:54 | 53.77570 | 10.32321 | 4966 ft | 181 kts | 264° |
| 2026-04-23 19:54 | 53.77252 | 10.30301 | 4752 ft | 175 kts | 264° |
| 2026-04-23 19:54 | 53.76937 | 10.28332 | 4380 ft | 174 kts | 264° |
| 2026-04-23 19:55 | 53.76523 | 10.26454 | 4123 ft | 175 kts | 245° |
| 2026-04-23 19:55 | 53.75786 | 10.24823 | 3853 ft | 171 kts | 243° |
| 2026-04-23 19:55 | 53.75065 | 10.23230 | 3620 ft | 172 kts | 242° |
| 2026-04-23 19:55 | 53.74307 | 10.21642 | 3387 ft | 175 kts | 240° |
| 2026-04-23 19:56 | 53.73529 | 10.20057 | 3135 ft | 175 kts | 240° |
| 2026-04-23 19:56 | 53.72754 | 10.18486 | 2898 ft | 175 kts | 240° |
| 2026-04-23 19:56 | 53.71972 | 10.16907 | 2669 ft | 175 kts | 240° |
| 2026-04-23 19:56 | 53.71191 | 10.15331 | 2430 ft | 174 kts | 240° |
| 2026-04-23 19:57 | 53.70421 | 10.13778 | 2194 ft | 170 kts | 240° |
| 2026-04-23 19:57 | 53.69672 | 10.12263 | 1953 ft | 167 kts | 241° |
| 2026-04-23 19:57 | 53.69183 | 10.11269 | 1813 ft | 165 kts | 240° |
| 2026-04-23 19:57 | 53.68210 | 10.09302 | 1495 ft | 161 kts | 239° |
| 2026-04-23 19:58 | 53.67499 | 10.07860 | 1291 ft | 155 kts | 238° |
| 2026-04-23 19:58 | 53.66840 | 10.06534 | 1076 ft | 141 kts | 239° |
| 2026-04-23 19:58 | 53.66221 | 10.05276 | 883 ft | 140 kts | 238° |
| 2026-04-23 19:58 | 53.65607 | 10.04033 | 700 ft | 137 kts | 235° |
| 2026-04-23 19:59 | 53.65002 | 10.02809 | 516 ft | 136 kts | 237° |
| 2026-04-23 19:59 | 53.64595 | 10.02023 | 413 ft | 134 kts | 235° |
| 2026-04-23 19:59 | 53.64014 | 10.00801 | 216 ft | 133 kts | 237° |
| 2026-04-23 19:59 | 53.63421 | 9.99606 | 59 ft | 132 kts | 237° |
| 2026-04-23 20:00 | 53.62900 | 9.98541 | 42 ft | 94 kts | 229° |
| 2026-04-23 20:00 | 53.62619 | 9.97971 | 39 ft | 41 kts | 231° |
| 2026-04-23 20:00 | 53.62499 | 9.97789 | 40 ft | 16 kts | 187° |
| 2026-04-23 20:00 | 53.62429 | 9.97896 | 44 ft | 14 kts | 91° |
| 2026-04-23 20:01 | 53.62451 | 9.98046 | 44 ft | 13 kts | 63° |
| 2026-04-23 20:01 | 53.62505 | 9.98180 | 46 ft | 14 kts | 50° |
| 2026-04-23 20:01 | 53.62566 | 9.98299 | 46 ft | 13 kts | 49° |
| 2026-04-23 20:01 | 53.62623 | 9.98416 | 46 ft | 13 kts | 51° |
| 2026-04-23 20:02 | 53.62678 | 9.98530 | 45 ft | 12 kts | 50° |
| 2026-04-23 20:02 | 53.62733 | 9.98640 | 46 ft | 12 kts | 50° |
| 2026-04-23 20:02 | 53.62787 | 9.98748 | 44 ft | 12 kts | 50° |
| 2026-04-23 20:02 | 53.62838 | 9.98854 | 46 ft | 12 kts | 51° |
| 2026-04-23 20:03 | 53.62889 | 9.98955 | 43 ft | 11 kts | 50° |
| 2026-04-23 20:03 | 53.62938 | 9.99054 | 46 ft | 11 kts | 51° |
| 2026-04-23 20:03 | 53.62986 | 9.99154 | 43 ft | 12 kts | 50° |
| 2026-04-23 20:03 | 53.63050 | 9.99283 | 46 ft | 16 kts | 51° |
| 2026-04-23 20:04 | 53.63110 | 9.99431 | 44 ft | 15 kts | 56° |
| 2026-04-23 20:04 | 53.63171 | 9.99569 | 45 ft | 14 kts | 50° |
| 2026-04-23 20:04 | 53.63221 | 9.99669 | 45 ft | 5 kts | 49° |
| 2026-04-23 20:04 | 53.63224 | 9.99675 | 47 ft | 0 kts | 49° |
| 2026-04-23 20:05 | 53.63234 | 9.99697 | 45 ft | 8 kts | 61° |
| 2026-04-23 20:05 | 53.63173 | 9.99803 | 47 ft | 18 kts | 154° |
| 2026-04-23 20:06 | 53.63062 | 9.99898 | 45 ft | 18 kts | 152° |
| 2026-04-23 20:06 | 53.63004 | 9.99950 | 47 ft | 0 kts | 152° |
| 2026-04-23 20:06 | 53.62993 | 9.99960 | 45 ft | 4 kts | 153° |
| 2026-04-23 20:06 | 53.62990 | 9.99962 | 47 ft | 0 kts | 153° |
| 2026-04-23 20:07 | 53.62966 | 9.99984 | 46 ft | 9 kts | 152° |
| 2026-04-23 20:07 | 53.62876 | 10.00047 | 45 ft | 16 kts | 159° |
| 2026-04-23 20:07 | 53.62774 | 10.00132 | 46 ft | 16 kts | 153° |
| 2026-04-23 20:07 | 53.62748 | 10.00192 | 45 ft | 6 kts | 74° |
| 2026-04-23 20:08 | 53.62769 | 10.00261 | 44 ft | 1 kts | 62° |
| 2026-04-23 20:08 | 53.62770 | 10.00266 | 47 ft | 0 kts | 62° |